createdAt,value
2022-11-12T00:02:21.694Z,99004.47
2022-11-12T00:04:48.337Z,99005.66
2022-11-12T00:07:15.083Z,99005.06
2022-11-12T00:09:41.781Z,98997.19
2022-11-12T00:12:08.465Z,99004.56
2022-11-12T00:14:35.142Z,98997.50
2022-11-12T00:17:01.796Z,98996.31
2022-11-12T00:19:28.475Z,98991.19
2022-11-12T00:21:55.127Z,98986.53
2022-11-12T00:24:21.794Z,99003.44
2022-11-12T00:26:48.631Z,98996.41
2022-11-12T00:29:15.321Z,98988.91
2022-11-12T00:31:41.981Z,98982.06
2022-11-12T00:34:08.629Z,98978.09
2022-11-12T00:36:35.299Z,98982.06
2022-11-12T00:41:46.237Z,98988.44
2022-11-12T00:44:12.896Z,98982.16
2022-11-12T00:46:39.591Z,98979.53
2022-11-12T00:49:06.240Z,98974.19
2022-11-12T00:51:32.913Z,98973.84
2022-11-12T00:53:59.592Z,98969.06
2022-11-12T00:56:26.221Z,98971.63
2022-11-12T00:58:52.856Z,98963.34
2022-11-12T01:01:19.491Z,98965.97
2022-11-12T01:03:46.170Z,98953.59
2022-11-12T01:06:12.836Z,98960.63
2022-11-12T01:08:39.777Z,98962.09
2022-11-12T01:11:06.429Z,98957.13
2022-11-12T01:13:33.133Z,98948.25
2022-11-12T01:15:59.795Z,98946.47
2022-11-12T01:18:26.689Z,98952.56
2022-11-12T01:20:53.745Z,98952.72
2022-11-12T01:23:20.392Z,98949.19
2022-11-12T01:25:47.086Z,98955.41
2022-11-12T01:28:13.702Z,98948.50
2022-11-12T01:30:40.414Z,98947.72
2022-11-12T01:33:13.469Z,98945.34
2022-11-12T01:35:40.193Z,98956.16
2022-11-12T01:38:06.899Z,98951.66
2022-11-12T01:40:33.577Z,98949.84
2022-11-12T01:43:00.297Z,98950.06
2022-11-12T01:45:26.978Z,98943.72
2022-11-12T01:47:53.676Z,98953.66
2022-11-12T01:50:20.358Z,98956.25
2022-11-12T01:52:47.009Z,98953.16
2022-11-12T01:55:13.670Z,98957.53
2022-11-12T01:57:40.317Z,98944.50
2022-11-12T02:00:06.997Z,98952.81
2022-11-12T02:02:33.708Z,98949.78
2022-11-12T02:05:00.342Z,98938.41
2022-11-12T02:07:26.968Z,98938.34
2022-11-12T02:09:53.582Z,98931.38
2022-11-12T02:12:20.250Z,98926.81
2022-11-12T02:14:46.916Z,98925.53
2022-11-12T02:17:13.576Z,98926.03
2022-11-12T02:19:40.230Z,98923.97
2022-11-12T02:22:06.893Z,98923.47
2022-11-12T02:24:33.519Z,98916.72
2022-11-12T02:27:00.395Z,98919.25
2022-11-12T02:29:27.012Z,98919.22
2022-11-12T02:31:53.644Z,98917.88
2022-11-12T02:34:20.258Z,98909.59
2022-11-12T02:36:46.932Z,98909.78
2022-11-12T02:39:13.589Z,98904.59
2022-11-12T02:41:40.253Z,98900.50
2022-11-12T02:44:06.888Z,98903.78
2022-11-12T02:46:33.500Z,98902.19
2022-11-12T02:49:00.162Z,98901.09
2022-11-12T02:51:26.763Z,98908.66
2022-11-12T02:53:53.422Z,98910.97
2022-11-12T02:56:20.052Z,98915.00
2022-11-12T02:58:46.699Z,98922.03
2022-11-12T03:01:13.425Z,98916.66
2022-11-12T03:03:40.139Z,98928.78
2022-11-12T03:06:06.779Z,98930.88
2022-11-12T03:08:33.636Z,98921.88
2022-11-12T03:11:00.422Z,98930.69
2022-11-12T03:13:27.106Z,98926.09
2022-11-12T03:15:53.839Z,98932.63
2022-11-12T03:18:20.583Z,98946.19
2022-11-12T03:20:47.255Z,98941.28
2022-11-12T03:23:13.895Z,98954.09
2022-11-12T03:25:40.564Z,98948.66
2022-11-12T03:28:07.227Z,98947.31
2022-11-12T03:30:33.854Z,98943.06
2022-11-12T03:33:00.556Z,98947.28
2022-11-12T03:35:27.189Z,98938.66
2022-11-12T03:37:53.867Z,98941.72
2022-11-12T03:40:20.479Z,98940.41
2022-11-12T03:42:47.121Z,98939.97
2022-11-12T03:45:13.777Z,98943.59
2022-11-12T03:47:40.445Z,98942.09
2022-11-12T03:50:07.113Z,98951.63
2022-11-12T03:52:33.755Z,98947.06
2022-11-12T03:55:00.404Z,98946.84
2022-11-12T03:57:27.116Z,98951.00
2022-11-12T03:59:53.756Z,98944.94
2022-11-12T04:02:20.399Z,98930.75
2022-11-12T04:04:47.013Z,98939.72
2022-11-12T04:07:13.681Z,98940.88
2022-11-12T04:09:40.305Z,98932.19
2022-11-12T04:12:06.948Z,98933.16
2022-11-12T04:14:33.551Z,98935.94
2022-11-12T04:17:00.255Z,98936.72
2022-11-12T04:19:26.929Z,98937.72
2022-11-12T04:21:53.555Z,98940.69
2022-11-12T04:24:20.188Z,98925.78
2022-11-12T04:26:46.821Z,98933.94
2022-11-12T04:29:13.460Z,98940.19
2022-11-12T04:31:40.096Z,98932.25
2022-11-12T04:34:06.739Z,98936.41
2022-11-12T04:36:33.370Z,98936.25
2022-11-12T04:39:00.004Z,98931.25
2022-11-12T04:41:26.630Z,98934.59
2022-11-12T04:43:53.299Z,98923.56
2022-11-12T04:46:19.914Z,98908.88
2022-11-12T04:48:46.558Z,98913.09
2022-11-12T04:51:13.204Z,98908.69
2022-11-12T04:53:39.850Z,98911.59
2022-11-12T04:56:06.462Z,98926.69
2022-11-12T04:58:33.099Z,98918.38
2022-11-12T05:00:59.759Z,98918.28
2022-11-12T05:03:26.657Z,98912.84
2022-11-12T05:05:53.329Z,98909.78
2022-11-12T05:08:19.998Z,98908.22
2022-11-12T05:10:46.654Z,98889.72
2022-11-12T05:13:13.289Z,98884.25
2022-11-12T05:15:39.993Z,98887.00
2022-11-12T05:18:06.658Z,98885.63
2022-11-12T05:20:33.305Z,98888.69
2022-11-12T05:23:06.793Z,98888.44
2022-11-12T05:25:33.685Z,98892.81
2022-11-12T05:28:00.350Z,98883.00
2022-11-12T05:30:26.979Z,98885.00
2022-11-12T05:32:53.652Z,98897.28
2022-11-12T05:35:20.303Z,98895.38
2022-11-12T05:37:46.920Z,98897.25
2022-11-12T05:40:13.555Z,98912.84
2022-11-12T05:42:40.200Z,98908.47
2022-11-12T05:45:06.853Z,98907.16
2022-11-12T05:47:33.482Z,98902.91
2022-11-12T05:50:00.149Z,98896.63
2022-11-12T05:52:29.073Z,98897.53
2022-11-12T05:54:55.724Z,98900.19
2022-11-12T05:57:22.388Z,98896.03
2022-11-12T05:59:49.093Z,98903.63
2022-11-12T06:02:15.761Z,98900.81
2022-11-12T06:04:42.391Z,98895.59
2022-11-12T06:07:09.032Z,98900.00
2022-11-12T06:09:35.705Z,98903.78
2022-11-12T06:12:02.379Z,98903.09
2022-11-12T06:14:29.006Z,98895.03
2022-11-12T06:16:55.625Z,98906.34
2022-11-12T06:19:22.305Z,98905.50
2022-11-12T06:21:48.927Z,98911.38
2022-11-12T06:24:15.748Z,98923.00
2022-11-12T06:26:42.389Z,98917.88
2022-11-12T06:29:09.025Z,98915.53
2022-11-12T06:31:35.686Z,98909.38
2022-11-12T06:34:02.313Z,98910.91
2022-11-12T06:36:28.960Z,98910.91
2022-11-12T06:38:55.620Z,98934.34
2022-11-12T06:41:22.462Z,98921.53
2022-11-12T06:43:49.197Z,98919.31
2022-11-12T06:46:15.863Z,98925.81
2022-11-12T06:48:42.558Z,98920.41
2022-11-12T06:51:09.268Z,98920.28
2022-11-12T06:53:35.907Z,98924.59
2022-11-12T06:56:02.566Z,98926.50
2022-11-12T06:58:29.355Z,98929.88
2022-11-12T07:00:56.172Z,98924.84
2022-11-12T07:03:22.833Z,98930.88
2022-11-12T07:05:49.467Z,98919.41
2022-11-12T07:08:16.111Z,98919.00
2022-11-12T07:10:42.788Z,98918.72
2022-11-12T07:13:09.445Z,98930.59
2022-11-12T07:15:36.142Z,98923.38
2022-11-12T07:18:02.775Z,98922.91
2022-11-12T07:20:29.565Z,98916.13
2022-11-12T07:22:56.251Z,98921.78
2022-11-12T07:25:22.889Z,98916.53
2022-11-12T07:27:49.525Z,98921.41
2022-11-12T07:30:16.170Z,98920.31
2022-11-12T07:32:46.130Z,98922.19
2022-11-12T07:35:15.008Z,98914.09
2022-11-12T07:37:41.662Z,98907.78
2022-11-12T07:40:08.300Z,98906.69
2022-11-12T07:42:34.917Z,98903.13
2022-11-12T07:45:01.545Z,98899.13
2022-11-12T07:47:28.177Z,98906.94
2022-11-12T07:49:54.839Z,98908.69
2022-11-12T07:52:21.479Z,98906.13
2022-11-12T07:54:48.127Z,98899.34
2022-11-12T07:57:14.763Z,98899.34
2022-11-12T07:59:45.927Z,98896.00
2022-11-12T08:02:13.058Z,98899.88
2022-11-12T08:04:39.675Z,98896.47
2022-11-12T08:07:06.500Z,98892.72
2022-11-12T08:09:33.258Z,98899.31
2022-11-12T08:11:59.897Z,98893.81
2022-11-12T08:14:26.537Z,98895.19
2022-11-12T08:16:53.275Z,98896.13
2022-11-12T08:19:19.955Z,98896.88
2022-11-12T08:21:46.620Z,98904.88
2022-11-12T08:24:13.264Z,98902.94
2022-11-12T08:26:39.926Z,98900.16
2022-11-12T08:29:08.699Z,98902.22
2022-11-12T08:31:35.722Z,98904.94
2022-11-12T08:34:02.365Z,98908.41
2022-11-12T08:36:29.002Z,98908.09
2022-11-12T08:38:55.662Z,98904.31
2022-11-12T08:41:22.290Z,98905.81
2022-11-12T08:43:48.935Z,98909.25
2022-11-12T08:46:15.652Z,98906.38
2022-11-12T08:48:42.301Z,98911.78
2022-11-12T08:51:08.953Z,98914.84
2022-11-12T08:53:35.609Z,98921.31
2022-11-12T08:56:02.278Z,98918.59
2022-11-12T08:58:29.198Z,98913.66
2022-11-12T09:00:56.113Z,98912.44
2022-11-12T09:03:22.745Z,98909.81
2022-11-12T09:05:49.601Z,98913.72
2022-11-12T09:08:16.411Z,98914.78
2022-11-12T09:10:44.082Z,98911.09
2022-11-12T09:13:11.368Z,98908.88
2022-11-12T09:15:38.869Z,98905.22
2022-11-12T09:18:05.922Z,98910.41
2022-11-12T09:20:37.260Z,98914.69
2022-11-12T09:23:04.953Z,98921.97
2022-11-12T09:25:31.812Z,98925.44
2022-11-12T09:27:58.498Z,98922.22
2022-11-12T09:30:25.162Z,98922.28
2022-11-12T09:32:51.846Z,98914.28
2022-11-12T09:35:18.518Z,98918.00
2022-11-12T09:37:45.180Z,98924.50
2022-11-12T09:40:11.835Z,98910.66
2022-11-12T09:42:38.484Z,98904.06
2022-11-12T09:45:05.196Z,98902.91
2022-11-12T09:47:31.840Z,98896.50
2022-11-12T09:49:58.520Z,98897.47
2022-11-12T09:52:25.133Z,98895.84
2022-11-12T09:54:51.783Z,98881.44
2022-11-12T09:57:18.492Z,98881.50
2022-11-12T09:59:45.196Z,98880.28
2022-11-12T10:02:11.904Z,98872.78
2022-11-12T10:04:38.575Z,98865.03
2022-11-12T10:07:05.354Z,98857.75
2022-11-12T10:09:32.077Z,98850.94
2022-11-12T10:12:03.877Z,98857.84
2022-11-12T10:14:30.795Z,98847.03
2022-11-12T10:16:57.435Z,98860.75
2022-11-12T10:19:24.100Z,98853.53
2022-11-12T10:21:50.734Z,98852.06
2022-11-12T10:24:17.397Z,98850.41
2022-11-12T10:26:44.039Z,98833.88
2022-11-12T10:29:10.690Z,98846.06
2022-11-12T10:31:37.346Z,98850.88
2022-11-12T10:34:04.019Z,98841.88
2022-11-12T10:36:30.697Z,98852.19
2022-11-12T10:38:57.361Z,98844.28
2022-11-12T10:41:24.019Z,98841.41
2022-11-12T10:43:50.651Z,98835.09
2022-11-12T10:46:17.296Z,98835.00
2022-11-12T10:48:43.959Z,98832.78
2022-11-12T10:51:10.589Z,98835.81
2022-11-12T10:53:37.227Z,98843.63
2022-11-12T10:56:03.838Z,98841.97
2022-11-12T10:58:30.552Z,98860.22
2022-11-12T11:00:57.260Z,98872.78
2022-11-12T11:03:23.950Z,98864.44
2022-11-12T11:05:50.646Z,98864.41
2022-11-12T11:08:17.315Z,98858.63
2022-11-12T11:10:43.984Z,98864.53
2022-11-12T11:13:10.678Z,98859.28
2022-11-12T11:15:37.343Z,98855.97
2022-11-12T11:18:04.013Z,98851.78
2022-11-12T11:20:30.675Z,98855.19
2022-11-12T11:22:57.350Z,98852.72
2022-11-12T11:25:23.986Z,98853.78
2022-11-12T11:27:50.663Z,98848.13
2022-11-12T11:30:17.325Z,98850.22
2022-11-12T11:32:44.041Z,98852.59
2022-11-12T11:35:10.762Z,98854.59
2022-11-12T11:37:37.477Z,98850.00
2022-11-12T11:40:04.134Z,98851.75
2022-11-12T11:42:30.854Z,98854.19
2022-11-12T11:44:57.468Z,98847.94
2022-11-12T11:47:30.428Z,98847.97
2022-11-12T11:50:00.884Z,98847.47
2022-11-12T11:52:27.539Z,98842.16
2022-11-12T11:54:54.167Z,98840.72
2022-11-12T11:57:20.847Z,98833.19
2022-11-12T11:59:47.492Z,98835.84
2022-11-12T12:02:14.148Z,98825.84
2022-11-12T12:04:40.802Z,98833.66
2022-11-12T12:07:07.503Z,98839.09
2022-11-12T12:09:34.267Z,98840.56
2022-11-12T12:12:00.884Z,98835.28
2022-11-12T12:14:27.541Z,98836.16
2022-11-12T12:16:54.177Z,98839.50
2022-11-12T12:19:21.872Z,98843.81
2022-11-12T12:21:48.574Z,98845.59
2022-11-12T12:24:15.230Z,98837.03
2022-11-12T12:26:41.853Z,98831.19
2022-11-12T12:29:08.489Z,98830.53
2022-11-12T12:31:35.194Z,98832.53
2022-11-12T12:34:01.842Z,98829.44
2022-11-12T12:36:28.548Z,98831.00
2022-11-12T12:38:55.196Z,98824.91
2022-11-12T12:41:21.833Z,98828.78
2022-11-12T12:43:48.472Z,98828.19
2022-11-12T12:46:15.094Z,98822.66
2022-11-12T12:48:41.741Z,98824.31
2022-11-12T12:51:08.409Z,98811.41
2022-11-12T12:53:35.032Z,98813.25
2022-11-12T12:56:01.698Z,98819.97
2022-11-12T12:58:28.760Z,98815.66
2022-11-12T13:00:55.740Z,98815.09
2022-11-12T13:03:22.483Z,98815.94
2022-11-12T13:05:49.164Z,98807.94
2022-11-12T13:08:16.002Z,98800.31
2022-11-12T13:10:42.643Z,98794.50
2022-11-12T13:13:09.260Z,98791.00
2022-11-12T13:15:35.906Z,98789.44
2022-11-12T13:18:02.587Z,98795.31
2022-11-12T13:20:29.207Z,98786.38
2022-11-12T13:22:55.833Z,98790.53
2022-11-12T13:25:22.514Z,98784.72
2022-11-12T13:27:49.154Z,98782.91
2022-11-12T13:30:16.034Z,98778.81
2022-11-12T13:32:42.676Z,98789.16
2022-11-12T13:35:09.373Z,98789.22
2022-11-12T13:37:36.053Z,98798.25
2022-11-12T13:40:02.724Z,98798.19
2022-11-12T13:42:29.344Z,98798.03
2022-11-12T13:44:56.874Z,98794.97
2022-11-12T13:47:23.512Z,98801.56
2022-11-12T13:49:50.169Z,98807.56
2022-11-12T13:52:16.833Z,98804.25
2022-11-12T13:54:43.498Z,98809.38
2022-11-12T13:57:14.163Z,98807.13
2022-11-12T13:59:41.132Z,98819.41
2022-11-12T14:02:07.784Z,98818.59
2022-11-12T14:04:34.451Z,98821.41
2022-11-12T14:07:01.143Z,98826.28
2022-11-12T14:09:27.803Z,98830.41
2022-11-12T14:11:54.465Z,98828.84
2022-11-12T14:14:21.151Z,98829.59
2022-11-12T14:16:47.808Z,98833.03
2022-11-12T14:19:14.489Z,98828.34
2022-11-12T14:21:41.149Z,98834.97
2022-11-12T14:24:07.772Z,98828.84
2022-11-12T14:26:34.409Z,98828.84
2022-11-12T14:29:01.081Z,98822.50
2022-11-12T14:31:27.701Z,98819.19
2022-11-12T14:33:54.354Z,98822.66
2022-11-12T14:36:20.998Z,98825.91
2022-11-12T14:38:47.630Z,98824.25
2022-11-12T14:41:14.247Z,98823.03
2022-11-12T14:43:40.889Z,98822.78
2022-11-12T14:46:07.536Z,98821.34
2022-11-12T14:48:34.204Z,98828.22
2022-11-12T14:51:00.867Z,98819.34
2022-11-12T14:53:28.258Z,98819.09
2022-11-12T14:55:55.207Z,98816.13
2022-11-12T14:58:21.851Z,98817.25
2022-11-12T15:00:48.532Z,98812.38
2022-11-12T15:03:15.316Z,98823.22
2022-11-12T15:05:42.038Z,98824.00
2022-11-12T15:08:08.679Z,98822.19
2022-11-12T15:10:35.357Z,98822.34
2022-11-12T15:13:01.989Z,98819.81
2022-11-12T15:15:28.776Z,98822.38
2022-11-12T15:17:55.428Z,98818.84
2022-11-12T15:20:22.031Z,98821.31
2022-11-12T15:22:48.654Z,98826.69
2022-11-12T15:25:15.319Z,98819.91
2022-11-12T15:27:41.974Z,98823.91
2022-11-12T15:30:08.603Z,98824.88
2022-11-12T15:32:35.235Z,98819.94
2022-11-12T15:35:01.887Z,98821.84
2022-11-12T15:37:28.501Z,98822.25
2022-11-12T15:39:55.179Z,98825.69
2022-11-12T15:45:06.081Z,98825.34
2022-11-12T15:47:32.757Z,98826.19
2022-11-12T15:49:59.411Z,98835.53
2022-11-12T15:52:26.087Z,98843.50
2022-11-12T15:54:52.742Z,98831.00
2022-11-12T15:57:19.417Z,98834.31
2022-11-12T15:59:46.084Z,98836.50
2022-11-12T16:02:12.702Z,98836.03
2022-11-12T16:04:39.350Z,98834.91
2022-11-12T16:07:06.048Z,98830.31
2022-11-12T16:09:32.777Z,98838.59
2022-11-12T16:11:59.402Z,98839.94
2022-11-12T16:14:26.027Z,98839.28
2022-11-12T16:16:52.639Z,98840.94
2022-11-12T16:19:19.262Z,98844.41
2022-11-12T16:21:46.930Z,98841.44
2022-11-12T16:24:13.568Z,98840.59
2022-11-12T16:26:40.226Z,98838.63
2022-11-12T16:29:06.861Z,98847.53
2022-11-12T16:31:33.517Z,98844.09
2022-11-12T16:34:00.193Z,98844.56
2022-11-12T16:36:26.847Z,98850.34
2022-11-12T16:38:53.490Z,98853.47
2022-11-12T16:41:20.130Z,98855.09
2022-11-12T16:43:46.835Z,98852.44
2022-11-12T16:46:13.467Z,98858.69
2022-11-12T16:48:40.109Z,98858.19
2022-11-12T16:51:06.744Z,98857.22
2022-11-12T16:53:33.399Z,98860.81
2022-11-12T16:56:00.070Z,98861.13
2022-11-12T16:58:26.745Z,98859.63
2022-11-12T17:00:53.472Z,98870.34
2022-11-12T17:03:20.217Z,98863.06
2022-11-12T17:05:46.883Z,98873.72
2022-11-12T17:08:13.507Z,98870.53
2022-11-12T17:10:40.134Z,98872.28
2022-11-12T17:13:06.800Z,98863.91
2022-11-12T17:15:33.477Z,98870.28
2022-11-12T17:18:00.101Z,98865.19
2022-11-12T17:20:26.743Z,98860.88
2022-11-12T17:22:53.371Z,98862.88
2022-11-12T17:25:20.011Z,98867.19
2022-11-12T17:27:46.654Z,98867.13
2022-11-12T17:30:13.324Z,98866.78
2022-11-12T17:32:39.984Z,98870.53
2022-11-12T17:35:06.830Z,98864.09
2022-11-12T17:37:33.513Z,98869.31
2022-11-12T17:40:00.247Z,98875.44
2022-11-12T17:42:26.895Z,98874.69
2022-11-12T17:44:53.563Z,98881.59
2022-11-12T17:47:20.192Z,98878.91
2022-11-12T17:49:46.845Z,98875.66
2022-11-12T17:52:13.469Z,98875.56
2022-11-12T17:54:40.114Z,98869.56
2022-11-12T17:57:06.767Z,98880.09
2022-11-12T17:59:33.429Z,98880.91
2022-11-12T18:02:00.108Z,98873.63
2022-11-12T18:04:30.745Z,98885.34
2022-11-12T18:06:57.871Z,98878.13
2022-11-12T18:09:24.559Z,98879.25
2022-11-12T18:11:51.194Z,98874.75
2022-11-12T18:14:17.864Z,98874.06
2022-11-12T18:16:44.543Z,98868.97
2022-11-12T18:19:11.285Z,98869.34
2022-11-12T18:21:38.057Z,98866.88
2022-11-12T18:24:04.690Z,98874.41
2022-11-12T18:26:31.331Z,98882.28
2022-11-12T18:28:57.975Z,98876.81
2022-11-12T18:31:24.590Z,98879.97
2022-11-12T18:33:51.762Z,98883.59
2022-11-12T18:36:18.524Z,98885.00
2022-11-12T18:38:45.155Z,98898.00
2022-11-12T18:41:11.885Z,98890.63
2022-11-12T18:43:38.665Z,98895.22
2022-11-12T18:46:05.313Z,98891.75
2022-11-12T18:48:31.933Z,98887.69
2022-11-12T18:50:58.564Z,98880.06
2022-11-12T18:53:25.645Z,98886.56
2022-11-12T18:55:52.568Z,98883.19
2022-11-12T18:58:19.188Z,98884.00
2022-11-12T19:00:45.886Z,98883.81
2022-11-12T19:03:12.634Z,98886.47
2022-11-12T19:05:39.295Z,98879.75
2022-11-12T19:08:06.062Z,98875.75
2022-11-12T19:10:32.704Z,98875.59
2022-11-12T19:12:59.367Z,98876.72
2022-11-12T19:15:27.098Z,98874.94
2022-11-12T19:17:53.962Z,98883.50
2022-11-12T19:20:22.077Z,98887.22
2022-11-12T19:22:48.719Z,98886.53
2022-11-12T19:25:15.383Z,98881.38
2022-11-12T19:27:42.101Z,98885.28
2022-11-12T19:30:08.755Z,98886.88
2022-11-12T19:32:35.406Z,98882.81
2022-11-12T19:35:02.118Z,98876.66
2022-11-12T19:37:36.027Z,98878.47
2022-11-12T19:40:02.716Z,98881.38
2022-11-12T19:42:29.435Z,98877.94
2022-11-12T19:44:56.117Z,98876.25
2022-11-12T19:47:22.846Z,98869.28
2022-11-12T19:49:49.483Z,98861.78
2022-11-12T19:52:16.301Z,98864.09
2022-11-12T19:54:42.993Z,98863.72
2022-11-12T19:57:09.634Z,98861.81
2022-11-12T19:59:36.342Z,98874.31
2022-11-12T20:02:02.981Z,98858.97
2022-11-12T20:04:29.648Z,98852.97
2022-11-12T20:06:56.314Z,98869.66
2022-11-12T20:09:23.015Z,98872.50
2022-11-12T20:11:49.687Z,98865.31
2022-11-12T20:14:16.319Z,98871.03
2022-11-12T20:16:43.006Z,98873.69
2022-11-12T20:19:09.645Z,98870.06
2022-11-12T20:21:36.312Z,98866.72
2022-11-12T20:24:02.976Z,98868.69
2022-11-12T20:26:29.646Z,98868.09
2022-11-12T20:28:56.282Z,98867.47
2022-11-12T20:31:23.025Z,98873.13
2022-11-12T20:33:49.875Z,98870.56
2022-11-12T20:36:16.645Z,98872.19
2022-11-12T20:38:43.335Z,98873.69
2022-11-12T20:41:10.053Z,98876.03
2022-11-12T20:43:36.806Z,98869.84
2022-11-12T20:46:03.709Z,98871.88
2022-11-12T20:48:30.525Z,98877.31
2022-11-12T20:51:22.164Z,98872.22
2022-11-12T20:53:43.900Z,98878.72
2022-11-12T20:56:10.569Z,98879.53
2022-11-12T20:58:37.285Z,98878.47
2022-11-12T21:01:03.943Z,98875.69
2022-11-12T21:03:30.654Z,98877.59
2022-11-12T21:05:57.344Z,98883.28
2022-11-12T21:08:24.134Z,98890.88
2022-11-12T21:10:50.966Z,98888.69
2022-11-12T21:13:17.655Z,98880.69
2022-11-12T21:15:44.290Z,98878.25
2022-11-12T21:18:10.979Z,98875.53
2022-11-12T21:20:37.614Z,98876.63
2022-11-12T21:23:04.312Z,98878.66
2022-11-12T21:25:30.974Z,98876.78
2022-11-12T21:27:57.642Z,98874.56
2022-11-12T21:30:24.273Z,98873.78
2022-11-12T21:32:50.955Z,98877.78
2022-11-12T21:35:17.603Z,98886.03
2022-11-12T21:37:44.280Z,98879.50
2022-11-12T21:40:10.925Z,98881.13
2022-11-12T21:42:37.632Z,98880.47
2022-11-12T21:45:04.344Z,98877.94
2022-11-12T21:47:31.006Z,98882.91
2022-11-12T21:49:57.673Z,98886.88
2022-11-12T21:52:24.308Z,98889.72
2022-11-12T21:54:50.943Z,98893.72
2022-11-12T21:57:18.911Z,98895.88
2022-11-12T21:59:45.687Z,98887.63
2022-11-12T22:02:12.473Z,98886.56
2022-11-12T22:04:39.216Z,98880.69
2022-11-12T22:07:05.960Z,98887.53
2022-11-12T22:09:32.742Z,98873.88
2022-11-12T22:11:59.420Z,98873.09
2022-11-12T22:14:26.092Z,98872.06
2022-11-12T22:16:52.786Z,98872.81
2022-11-12T22:19:19.425Z,98873.63
2022-11-12T22:21:46.064Z,98868.06
2022-11-12T22:24:12.713Z,98875.97
2022-11-12T22:26:39.356Z,98866.94
2022-11-12T22:29:05.983Z,98857.94
2022-11-12T22:31:32.686Z,98861.94
2022-11-12T22:33:59.307Z,98862.50
2022-11-12T22:36:26.008Z,98865.75
2022-11-12T22:38:52.677Z,98863.47
2022-11-12T22:41:19.295Z,98863.19
2022-11-12T22:43:46.025Z,98871.84
2022-11-12T22:46:12.690Z,98874.81
2022-11-12T22:48:39.321Z,98871.53
2022-11-12T22:51:06.138Z,98869.19
2022-11-12T22:53:32.851Z,98870.41
2022-11-12T22:55:59.463Z,98869.88
2022-11-12T22:58:26.522Z,98871.31
2022-11-12T23:00:53.675Z,98868.16
2022-11-12T23:03:20.323Z,98869.72
2022-11-12T23:05:46.978Z,98864.78
2022-11-12T23:08:13.651Z,98861.50
2022-11-12T23:10:45.450Z,98866.53
2022-11-12T23:13:12.515Z,98864.25
2022-11-12T23:15:39.171Z,98866.53
2022-11-12T23:18:05.834Z,98852.94
2022-11-12T23:20:32.495Z,98858.56
2022-11-12T23:22:59.157Z,98865.41
2022-11-12T23:25:25.829Z,98863.69
2022-11-12T23:27:52.454Z,98857.50
2022-11-12T23:30:19.163Z,98862.59
2022-11-12T23:32:45.987Z,98856.00
2022-11-12T23:35:12.654Z,98850.09
2022-11-12T23:37:39.296Z,98855.56
2022-11-12T23:40:05.955Z,98852.44
2022-11-12T23:42:32.677Z,98848.16
2022-11-12T23:44:59.359Z,98848.84
2022-11-12T23:47:25.982Z,98845.34
2022-11-12T23:49:53.855Z,98850.78
2022-11-12T23:52:20.603Z,98845.56
2022-11-12T23:54:47.302Z,98853.88
2022-11-12T23:57:13.908Z,98849.41
2022-11-12T23:59:40.628Z,98849.97
